Time;durP1;ratioP1;P1;durP2;ratioP2;P2;SDS_P1;SDS_P2;PMS_P1;PMS_P2;Temp;Humidity;BMP_temperature;BMP_pressure;BME280_temperature;BME280_humidity;BME280_pressure;Samples;Min_cycle;Max_cycle;Signal;HPM_P1;HPM_P2
2022/07/30 00:00:05;;;;;;;3.13;1.60;;;20.20;55.40;;;;;;5026045;28;20033;-80
2022/07/30 00:02:31;;;;;;;3.47;1.30;;;20.20;56.00;;;;;;5029040;28;20019;-80
2022/07/30 00:04:57;;;;;;;4.13;1.50;;;20.10;55.70;;;;;;5029958;28;20120;-80
2022/07/30 00:07:23;;;;;;;2.10;1.45;;;20.10;55.90;;;;;;5014453;28;20232;-80
2022/07/30 00:09:49;;;;;;;3.17;1.50;;;20.00;56.70;;;;;;5022537;28;20025;-80
2022/07/30 00:12:15;;;;;;;2.13;1.40;;;20.00;56.00;;;;;;5040314;28;20631;-80
2022/07/30 00:14:40;;;;;;;2.95;1.40;;;19.90;56.00;;;;;;5032806;28;20712;-80
2022/07/30 00:17:06;;;;;;;2.88;1.58;;;19.90;56.00;;;;;;5017887;28;20501;-80
2022/07/30 00:19:32;;;;;;;2.90;1.60;;;19.80;56.30;;;;;;5023226;28;20047;-80
2022/07/30 00:21:58;;;;;;;2.55;1.40;;;19.80;56.40;;;;;;5014255;28;20655;-80
2022/07/30 00:24:24;;;;;;;2.78;1.63;;;19.70;56.50;;;;;;5024298;28;20451;-80
2022/07/30 00:26:50;;;;;;;2.90;1.60;;;19.60;56.50;;;;;;5038487;28;20014;-80
2022/07/30 00:29:16;;;;;;;3.00;1.60;;;19.60;57.40;;;;;;5027275;28;20035;-80
2022/07/30 00:31:42;;;;;;;3.05;1.77;;;19.50;57.50;;;;;;5020201;28;20111;-80
2022/07/30 00:34:08;;;;;;;2.17;1.60;;;19.40;56.90;;;;;;5033948;28;20013;-80
2022/07/30 00:36:34;;;;;;;2.47;1.67;;;19.40;56.90;;;;;;5020578;28;20029;-80
2022/07/30 00:39:00;;;;;;;3.55;1.73;;;19.40;57.00;;;;;;5009798;28;20628;-80
2022/07/30 00:41:26;;;;;;;2.50;1.53;;;19.30;57.10;;;;;;5034343;28;20017;-80
2022/07/30 00:43:52;;;;;;;2.63;1.58;;;19.20;57.80;;;;;;5019922;28;20041;-80
2022/07/30 00:46:18;;;;;;;3.35;1.58;;;19.20;57.40;;;;;;5037965;28;20124;-80
2022/07/30 00:48:44;;;;;;;2.57;1.77;;;19.20;57.50;;;;;;5021329;28;20025;-80
2022/07/30 00:51:10;;;;;;;2.63;1.60;;;19.10;57.50;;;;;;5029439;28;20040;-80
2022/07/30 00:53:36;;;;;;;2.92;1.70;;;19.10;57.50;;;;;;5027966;28;20017;-80
2022/07/30 00:56:03;;;;;;;3.57;1.97;;;19.00;57.70;;;;;;5013843;28;20033;-80
2022/07/30 00:58:29;;;;;;;2.97;1.70;;;19.00;57.90;;;;;;5023687;28;20029;-80
2022/07/30 01:00:54;;;;;;;2.85;1.77;;;18.90;58.00;;;;;;5024098;28;20106;-78
2022/07/30 01:03:20;;;;;;;3.20;1.88;;;18.90;58.00;;;;;;5028954;28;20057;-78
2022/07/30 01:05:48;;;;;;;4.00;1.87;;;18.90;58.10;;;;;;5028348;28;20024;-78
2022/07/30 01:08:13;;;;;;;3.42;2.10;;;18.80;58.20;;;;;;5015660;28;20013;-78
2022/07/30 01:10:39;;;;;;;3.72;1.80;;;18.80;58.20;;;;;;5025109;28;20380;-78
2022/07/30 01:13:06;;;;;;;4.80;2.00;;;18.70;58.20;;;;;;5016144;28;20548;-78
2022/07/30 01:15:33;;;;;;;3.80;1.85;;;18.80;58.50;;;;;;5038052;28;20029;-78
2022/07/30 01:18:02;;;;;;;3.45;1.80;;;18.70;58.50;;;;;;5026954;28;20032;-78
2022/07/30 01:20:42;;;;;;;2.55;1.70;;;18.70;58.70;;;;;;5035196;28;20013;-78
2022/07/30 01:23:16;;;;;;;3.57;1.80;;;18.60;59.60;;;;;;5036585;28;20459;-78
2022/07/30 01:25:54;;;;;;;2.90;1.98;;;18.60;59.20;;;;;;5030524;28;20025;-78
2022/07/30 01:28:24;;;;;;;3.63;2.20;;;18.50;59.10;;;;;;5041407;28;20025;-78
2022/07/30 01:30:53;;;;;;;3.13;1.90;;;18.50;59.10;;;;;;5021821;28;20024;-78
2022/07/30 01:33:21;;;;;;;3.60;2.20;;;18.50;59.00;;;;;;5033382;28;20091;-78
2022/07/30 01:35:49;;;;;;;3.27;2.00;;;18.40;59.10;;;;;;5031103;28;20025;-78
2022/07/30 01:38:20;;;;;;;3.90;2.05;;;18.40;59.10;;;;;;5023901;28;20044;-78
2022/07/30 01:40:48;;;;;;;3.58;2.25;;;18.40;59.30;;;;;;5009483;28;20033;-78
2022/07/30 01:43:15;;;;;;;3.63;2.25;;;18.30;59.20;;;;;;5023014;28;20033;-78
2022/07/30 01:45:41;;;;;;;3.30;2.08;;;18.30;59.30;;;;;;5026345;28;20075;-78
2022/07/30 01:48:09;;;;;;;3.30;2.03;;;18.30;59.40;;;;;;5041114;28;20044;-79
2022/07/30 01:50:37;;;;;;;3.60;2.10;;;18.20;59.50;;;;;;5030597;28;20107;-78
2022/07/30 01:53:04;;;;;;;4.53;2.53;;;18.20;60.40;;;;;;5040085;28;20144;-78
2022/07/30 01:55:34;;;;;;;4.63;2.40;;;18.20;59.90;;;;;;5017974;28;20164;-78
2022/07/30 01:58:02;;;;;;;4.72;2.58;;;18.10;60.10;;;;;;5045711;28;20199;-78
2022/07/30 02:00:31;;;;;;;4.57;2.70;;;18.00;59.90;;;;;;5035482;28;20388;-78
2022/07/30 02:02:57;;;;;;;4.55;2.45;;;18.00;60.10;;;;;;5041939;28;20092;-79
2022/07/30 02:05:25;;;;;;;4.28;2.40;;;18.00;60.10;;;;;;5028653;28;20492;-79
2022/07/30 02:08:05;;;;;;;4.55;2.28;;;18.00;60.30;;;;;;5035596;28;20768;-79
2022/07/30 02:10:55;;;;;;;4.03;2.28;;;17.90;60.50;;;;;;5036403;28;20646;-79
2022/07/30 02:13:25;;;;;;;4.80;2.13;;;17.90;62.40;;;;;;5040018;28;20024;-79
2022/07/30 02:15:58;;;;;;;4.28;2.35;;;17.90;60.30;;;;;;5024455;28;20273;-79
2022/07/30 02:18:47;;;;;;;4.22;2.22;;;17.80;60.10;;;;;;5043351;28;20025;-79
2022/07/30 02:21:15;;;;;;;3.97;2.20;;;17.80;61.60;;;;;;5030917;28;20067;-79
2022/07/30 02:23:44;;;;;;;4.10;2.40;;;17.70;60.40;;;;;;5026745;28;20491;-79
2022/07/30 02:26:17;;;;;;;4.57;2.30;;;17.70;60.90;;;;;;5034208;28;20048;-79
2022/07/30 02:28:46;;;;;;;3.28;2.05;;;17.70;61.10;;;;;;5017495;28;20040;-78
2022/07/30 02:31:17;;;;;;;3.60;2.13;;;17.60;60.80;;;;;;5020609;28;20200;-79
2022/07/30 02:33:44;;;;;;;3.58;2.13;;;17.60;60.70;;;;;;5036722;28;20118;-79
2022/07/30 02:36:11;;;;;;;4.00;2.38;;;17.60;60.70;;;;;;5020622;28;20381;-78
2022/07/30 02:38:39;;;;;;;4.03;2.40;;;17.50;60.70;;;;;;5030536;28;20539;-78
2022/07/30 02:41:08;;;;;;;3.92;2.13;;;17.50;60.90;;;;;;5034133;28;20658;-78
2022/07/30 02:43:36;;;;;;;5.10;2.20;;;17.50;61.10;;;;;;5010764;28;20591;-78
2022/07/30 02:46:03;;;;;;;3.95;2.15;;;17.40;61.00;;;;;;5021016;28;20473;-79
2022/07/30 02:48:30;;;;;;;3.35;2.15;;;17.40;61.00;;;;;;5037005;28;20529;-79
2022/07/30 02:50:57;;;;;;;4.00;2.33;;;17.40;61.20;;;;;;5036092;28;20060;-78
2022/07/30 02:53:25;;;;;;;4.82;2.50;;;17.40;61.50;;;;;;5017225;28;20189;-79
2022/07/30 02:55:54;;;;;;;4.68;2.35;;;17.30;61.80;;;;;;5034337;28;20040;-78
2022/07/30 02:58:22;;;;;;;3.85;2.35;;;17.30;61.90;;;;;;4998874;28;20563;-78
2022/07/30 03:00:51;;;;;;;4.30;2.30;;;17.30;62.10;;;;;;5034912;28;20028;-78
2022/07/30 03:03:17;;;;;;;3.70;2.03;;;17.20;62.10;;;;;;5028384;28;20556;-78
2022/07/30 03:05:46;;;;;;;4.20;2.35;;;17.20;61.80;;;;;;5034742;28;20031;-78
2022/07/30 03:08:13;;;;;;;3.45;2.13;;;17.20;61.90;;;;;;5020435;28;20028;-78
2022/07/30 03:10:43;;;;;;;4.88;2.50;;;17.20;62.10;;;;;;5033324;28;20064;-78
2022/07/30 03:13:10;;;;;;;4.05;2.47;;;17.20;62.30;;;;;;5000453;28;20036;-78
2022/07/30 03:15:41;;;;;;;3.50;2.43;;;17.20;62.30;;;;;;5035971;28;20022;-78
2022/07/30 03:18:15;;;;;;;3.53;2.40;;;17.10;62.60;;;;;;5024166;28;20044;-78
2022/07/30 03:20:44;;;;;;;3.60;2.30;;;17.10;63.30;;;;;;5039648;28;20027;-79
2022/07/30 03:23:11;;;;;;;4.75;2.45;;;17.10;63.20;;;;;;5016104;28;20136;-78
2022/07/30 03:25:39;;;;;;;3.80;2.45;;;17.10;63.00;;;;;;5014711;28;20048;-78
2022/07/30 03:28:05;;;;;;;3.73;2.23;;;17.10;63.30;;;;;;5017127;28;20039;-78
2022/07/30 03:30:33;;;;;;;4.35;2.60;;;17.10;63.00;;;;;;5030908;28;20021;-78
2022/07/30 03:32:59;;;;;;;3.50;2.45;;;17.00;63.20;;;;;;5024948;28;20021;-78
2022/07/30 03:35:26;;;;;;;5.03;2.35;;;17.00;63.10;;;;;;5023251;28;20031;-78
2022/07/30 03:37:54;;;;;;;4.15;2.65;;;17.00;63.30;;;;;;5015379;28;20089;-78
2022/07/30 03:40:21;;;;;;;3.93;2.37;;;17.00;63.50;;;;;;5025111;28;20033;-78
2022/07/30 03:42:48;;;;;;;3.50;2.30;;;16.90;63.60;;;;;;5028532;28;20250;-78
2022/07/30 03:45:14;;;;;;;5.95;2.42;;;17.00;63.60;;;;;;5031143;28;20040;-78
2022/07/30 03:47:42;;;;;;;3.30;2.28;;;16.90;63.70;;;;;;5024250;28;20241;-78
2022/07/30 03:50:08;;;;;;;4.18;2.45;;;16.90;63.90;;;;;;5032920;28;20116;-78
2022/07/30 03:52:37;;;;;;;2.93;2.20;;;16.90;64.00;;;;;;5029356;28;20459;-78
2022/07/30 03:55:05;;;;;;;3.47;2.30;;;16.90;64.20;;;;;;5037989;28;20572;-78
2022/07/30 03:57:31;;;;;;;4.32;2.38;;;16.80;63.90;;;;;;5029601;28;20520;-78
2022/07/30 03:59:57;;;;;;;3.88;2.25;;;16.80;64.40;;;;;;5016678;28;20479;-78
2022/07/30 04:02:23;;;;;;;4.10;2.27;;;16.80;63.70;;;;;;5025191;28;20021;-78
2022/07/30 04:04:49;;;;;;;4.15;2.38;;;16.80;63.90;;;;;;5032906;28;20104;-78
2022/07/30 04:07:15;;;;;;;3.60;2.35;;;16.80;63.90;;;;;;5034209;28;20045;-78
2022/07/30 04:09:40;;;;;;;3.93;2.10;;;16.70;63.90;;;;;;5024094;28;20138;-78
2022/07/30 04:12:06;;;;;;;6.47;2.22;;;16.70;64.00;;;;;;5009910;28;20017;-78
2022/07/30 04:14:41;;;;;;;3.10;2.03;;;16.70;64.10;;;;;;5033848;28;20219;-78
2022/07/30 04:17:29;;;;;;;3.55;2.30;;;16.70;65.30;;;;;;5016080;28;20013;-78
2022/07/30 04:20:00;;;;;;;3.15;2.25;;;16.70;66.50;;;;;;5033384;28;20051;-78
2022/07/30 04:22:34;;;;;;;4.25;2.15;;;16.70;64.40;;;;;;5026296;28;20563;-78
2022/07/30 04:25:05;;;;;;;4.97;2.38;;;16.70;65.30;;;;;;5024068;28;20493;-78
2022/07/30 04:27:33;;;;;;;3.60;2.27;;;16.70;65.00;;;;;;5028714;28;20140;-78
2022/07/30 04:29:59;;;;;;;4.50;2.20;;;16.70;64.60;;;;;;5023707;28;20333;-78
2022/07/30 04:32:26;;;;;;;3.40;2.25;;;16.70;64.70;;;;;;5001373;28;20056;-78
2022/07/30 04:34:54;;;;;;;3.88;2.40;;;16.70;64.90;;;;;;5023329;28;20040;-78
2022/07/30 04:37:23;;;;;;;3.72;2.50;;;16.70;65.20;;;;;;5034727;28;20025;-78
2022/07/30 04:39:53;;;;;;;4.43;2.50;;;16.70;65.40;;;;;;4994896;28;20248;-78
2022/07/30 04:42:19;;;;;;;3.85;2.20;;;16.70;65.30;;;;;;5024931;28;20036;-78
2022/07/30 04:44:45;;;;;;;3.70;2.25;;;16.70;65.30;;;;;;5034904;28;20389;-78
2022/07/30 04:47:11;;;;;;;3.67;2.27;;;16.70;65.40;;;;;;5006051;28;20029;-78
2022/07/30 04:49:39;;;;;;;5.32;2.35;;;16.70;65.70;;;;;;5015089;28;20048;-78
2022/07/30 04:52:06;;;;;;;3.88;2.20;;;16.70;65.70;;;;;;5031121;28;20128;-78
2022/07/30 04:54:39;;;;;;;4.13;2.30;;;16.70;65.90;;;;;;5016265;28;20198;-78
2022/07/30 04:57:05;;;;;;;4.50;2.50;;;16.70;66.50;;;;;;5034533;28;20108;-78
2022/07/30 04:59:33;;;;;;;4.60;2.63;;;16.70;66.00;;;;;;5018135;28;20257;-78
2022/07/30 05:02:00;;;;;;;4.63;2.65;;;16.70;66.10;;;;;;5008431;28;20329;-78
2022/07/30 05:04:27;;;;;;;4.10;2.65;;;16.80;66.40;;;;;;5026375;28;20032;-78
2022/07/30 05:06:55;;;;;;;5.70;3.10;;;16.80;66.70;;;;;;5007384;28;20063;-78
2022/07/30 05:09:21;;;;;;;4.25;2.67;;;16.80;66.90;;;;;;5024083;28;20225;-78
2022/07/30 05:11:54;;;;;;;4.87;2.53;;;16.90;66.90;;;;;;5012123;28;20113;-78
2022/07/30 05:14:21;;;;;;;5.15;2.50;;;16.90;67.80;;;;;;5029091;28;20571;-78
2022/07/30 05:16:47;;;;;;;4.43;2.58;;;16.90;66.80;;;;;;5031837;28;20029;-78
2022/07/30 05:19:13;;;;;;;4.60;2.60;;;17.00;66.90;;;;;;5002030;28;20147;-78
2022/07/30 05:21:39;;;;;;;4.85;2.65;;;17.00;67.10;;;;;;5025711;28;20404;-78
2022/07/30 05:24:05;;;;;;;4.50;2.60;;;17.00;67.20;;;;;;5026921;28;20231;-78
2022/07/30 05:26:31;;;;;;;4.93;2.70;;;17.10;67.20;;;;;;5025291;28;20032;-78
2022/07/30 05:28:57;;;;;;;4.10;2.50;;;17.10;67.20;;;;;;5031256;28;20441;-78
2022/07/30 05:31:23;;;;;;;4.07;2.70;;;17.20;67.60;;;;;;5017884;28;20052;-78
2022/07/30 05:33:50;;;;;;;4.80;2.65;;;17.20;67.80;;;;;;5019194;28;20032;-78
2022/07/30 05:36:16;;;;;;;4.75;2.63;;;17.30;68.10;;;;;;5012385;28;20929;-78
2022/07/30 05:38:42;;;;;;;5.13;2.67;;;17.30;68.00;;;;;;5013672;28;20304;-78
2022/07/30 05:41:07;;;;;;;4.47;2.90;;;17.40;68.10;;;;;;5010509;28;20216;-78
2022/07/30 05:43:33;;;;;;;4.03;2.70;;;17.40;68.40;;;;;;5026575;28;20051;-78
2022/07/30 05:45:59;;;;;;;5.27;3.10;;;17.50;68.40;;;;;;5022986;28;20067;-78
2022/07/30 05:48:26;;;;;;;4.20;2.90;;;17.50;68.60;;;;;;5034985;28;20052;-78
2022/07/30 05:50:52;;;;;;;4.10;2.53;;;17.60;68.90;;;;;;5002213;28;20026;-78
2022/07/30 05:53:18;;;;;;;5.13;3.05;;;17.60;68.90;;;;;;5002293;28;20618;-79
2022/07/30 05:55:44;;;;;;;4.68;2.97;;;17.70;69.10;;;;;;5028464;28;20024;-79
2022/07/30 05:58:10;;;;;;;5.27;3.07;;;17.80;69.20;;;;;;5024851;28;20341;-79
2022/07/30 06:00:35;;;;;;;5.13;3.03;;;17.90;69.30;;;;;;5019495;28;20013;-78
2022/07/30 06:03:01;;;;;;;5.80;3.03;;;17.90;69.50;;;;;;5027168;28;20442;-78
2022/07/30 06:05:28;;;;;;;5.03;3.20;;;18.00;69.60;;;;;;5005058;28;20029;-79
2022/07/30 06:07:54;;;;;;;4.95;3.10;;;18.00;69.60;;;;;;5015309;28;20024;-78
2022/07/30 06:10:19;;;;;;;4.45;3.00;;;18.10;69.90;;;;;;5022628;28;20831;-79
2022/07/30 06:12:45;;;;;;;6.33;3.03;;;18.20;70.00;;;;;;5041926;28;20534;-79
2022/07/30 06:15:11;;;;;;;4.68;2.95;;;18.30;70.00;;;;;;5020319;28;20686;-78
2022/07/30 06:17:44;;;;;;;4.90;2.93;;;18.40;70.00;;;;;;5032090;28;20060;-78
2022/07/30 06:20:11;;;;;;;4.90;2.95;;;18.40;70.90;;;;;;5004075;28;20617;-78
2022/07/30 06:22:37;;;;;;;4.85;2.92;;;18.50;70.00;;;;;;5030724;28;20451;-79
2022/07/30 06:25:04;;;;;;;4.85;3.03;;;18.60;70.00;;;;;;4987229;28;20124;-78
2022/07/30 06:27:32;;;;;;;4.57;2.67;;;18.60;70.20;;;;;;5027465;28;20521;-78
2022/07/30 06:29:59;;;;;;;4.72;2.97;;;18.70;70.20;;;;;;5020397;28;20155;-78
2022/07/30 06:32:25;;;;;;;5.38;2.72;;;18.70;70.40;;;;;;5028338;28;20017;-79
2022/07/30 06:34:51;;;;;;;4.90;2.85;;;18.90;70.40;;;;;;5010375;28;20269;-78
2022/07/30 06:37:16;;;;;;;4.83;2.80;;;18.90;70.50;;;;;;5006169;28;20326;-78
2022/07/30 06:39:42;;;;;;;5.43;2.85;;;19.00;70.70;;;;;;5025817;28;20036;-78
2022/07/30 06:42:08;;;;;;;4.40;2.97;;;19.10;70.90;;;;;;5021762;28;20387;-78
2022/07/30 06:44:34;;;;;;;3.72;2.67;;;19.20;70.90;;;;;;5014689;28;20043;-78
2022/07/30 06:46:59;;;;;;;5.10;2.80;;;19.20;70.80;;;;;;5013966;28;20055;-78
2022/07/30 06:49:25;;;;;;;4.43;3.05;;;19.30;70.90;;;;;;5014796;28;20025;-78
2022/07/30 06:51:51;;;;;;;4.28;2.95;;;19.40;71.10;;;;;;4994239;28;20728;-78
2022/07/30 06:54:17;;;;;;;4.83;2.97;;;19.50;71.10;;;;;;5006116;28;20364;-78
2022/07/30 06:56:43;;;;;;;5.18;3.00;;;19.60;71.10;;;;;;5010018;28;20094;-79
2022/07/30 06:59:08;;;;;;;4.83;3.40;;;19.70;71.20;;;;;;5028933;28;20102;-79
2022/07/30 07:01:34;;;;;;;4.65;3.20;;;19.80;71.20;;;;;;5003120;28;20373;-79
2022/07/30 07:04:00;;;;;;;5.27;2.83;;;19.90;71.10;;;;;;5029353;28;20405;-78
2022/07/30 07:06:26;;;;;;;5.72;3.30;;;20.00;71.10;;;;;;5012484;28;20633;-78
2022/07/30 07:08:51;;;;;;;5.68;3.30;;;20.10;71.20;;;;;;5018553;28;20464;-79
2022/07/30 07:11:17;;;;;;;10.17;3.30;;;20.20;71.30;;;;;;4990812;28;20219;-79
2022/07/30 07:13:43;;;;;;;7.20;3.03;;;20.30;71.00;;;;;;5030650;28;20025;-78
2022/07/30 07:16:08;;;;;;;6.25;2.95;;;20.30;71.00;;;;;;5014359;28;20037;-78
2022/07/30 07:18:34;;;;;;;4.70;2.83;;;20.50;71.10;;;;;;5016292;28;20033;-78
2022/07/30 07:21:00;;;;;;;5.97;2.97;;;20.60;70.90;;;;;;5018862;28;20063;-78
2022/07/30 07:23:26;;;;;;;5.03;2.93;;;20.70;70.80;;;;;;5006985;28;20258;-78
2022/07/30 07:25:51;;;;;;;4.22;2.53;;;20.80;70.90;;;;;;5026321;28;20052;-78
2022/07/30 07:28:17;;;;;;;4.72;2.90;;;20.90;70.80;;;;;;5015316;28;20280;-78
2022/07/30 07:30:43;;;;;;;5.07;2.90;;;21.00;70.70;;;;;;5033988;28;20098;-78
2022/07/30 07:33:09;;;;;;;4.90;2.63;;;21.10;70.50;;;;;;5018361;28;20036;-79
2022/07/30 07:35:35;;;;;;;4.15;2.95;;;21.20;70.70;;;;;;5033167;28;20024;-79
2022/07/30 07:38:01;;;;;;;3.77;2.67;;;21.30;70.60;;;;;;5018861;28;20040;-79
2022/07/30 07:40:26;;;;;;;3.97;2.67;;;21.40;70.70;;;;;;5013790;28;20029;-78
2022/07/30 07:42:52;;;;;;;4.80;2.60;;;21.60;70.60;;;;;;5010605;28;20132;-79
2022/07/30 07:45:18;;;;;;;4.03;2.63;;;21.70;70.60;;;;;;5039673;28;20032;-79
2022/07/30 07:47:45;;;;;;;5.20;2.40;;;21.80;70.70;;;;;;5012729;28;20032;-80
2022/07/30 07:50:14;;;;;;;5.63;2.70;;;21.90;70.80;;;;;;5018404;28;20021;-79
2022/07/30 07:52:40;;;;;;;3.60;2.30;;;22.10;70.60;;;;;;5012914;28;20083;-80
2022/07/30 07:55:07;;;;;;;3.40;2.08;;;22.30;70.60;;;;;;5029888;28;20052;-79
2022/07/30 07:57:44;;;;;;;4.35;2.53;;;22.40;70.60;;;;;;4990688;28;20044;-79
2022/07/30 08:00:11;;;;;;;3.80;2.17;;;22.70;70.50;;;;;;5028111;28;20611;-79
2022/07/30 08:02:37;;;;;;;4.30;2.38;;;22.90;71.00;;;;;;5022558;28;20029;-79
2022/07/30 08:05:04;;;;;;;2.80;2.00;;;23.10;71.90;;;;;;5028672;28;21142;-80
2022/07/30 08:07:30;;;;;;;3.13;2.03;;;23.40;71.20;;;;;;5012677;28;20045;-79
2022/07/30 08:09:56;;;;;;;3.00;2.28;;;23.60;71.80;;;;;;5020774;28;20044;-79
2022/07/30 08:12:22;;;;;;;2.67;2.10;;;24.00;70.90;;;;;;5020753;28;20510;-79
2022/07/30 08:14:48;;;;;;;4.18;2.03;;;24.30;70.50;;;;;;5014052;28;20026;-80
2022/07/30 08:17:14;;;;;;;2.90;2.13;;;24.60;70.10;;;;;;5019475;28;20774;-79
2022/07/30 08:19:41;;;;;;;3.97;2.40;;;24.90;69.60;;;;;;5031467;28;20013;-79
2022/07/30 08:22:07;;;;;;;4.07;2.10;;;25.30;69.20;;;;;;5028851;28;20060;-79
2022/07/30 08:24:33;;;;;;;2.10;1.67;;;25.60;69.40;;;;;;5011191;28;20120;-78
2022/07/30 08:26:59;;;;;;;3.20;2.00;;;26.00;69.70;;;;;;5027824;28;20083;-80
2022/07/30 08:29:25;;;;;;;3.13;1.80;;;26.50;70.00;;;;;;5013565;28;20192;-80
2022/07/30 08:31:51;;;;;;;3.80;1.95;;;27.00;69.60;;;;;;5030501;28;20028;-80
2022/07/30 08:34:17;;;;;;;2.77;1.90;;;27.50;69.10;;;;;;5016890;28;20099;-79
2022/07/30 08:36:43;;;;;;;3.25;1.70;;;28.00;68.60;;;;;;5046594;28;20085;-79
2022/07/30 08:39:09;;;;;;;3.00;2.15;;;28.50;67.40;;;;;;5021187;28;20112;-79
2022/07/30 08:41:36;;;;;;;2.73;1.80;;;28.90;66.30;;;;;;5004071;28;20067;-80
2022/07/30 08:44:02;;;;;;;1.88;1.55;;;29.40;65.30;;;;;;5003885;28;20287;-79
2022/07/30 08:46:30;;;;;;;4.00;1.80;;;29.80;64.80;;;;;;5027898;28;20036;-80
2022/07/30 08:48:57;;;;;;;2.03;1.70;;;30.30;63.50;;;;;;5021008;28;20296;-79
2022/07/30 08:51:23;;;;;;;2.13;1.53;;;30.70;63.40;;;;;;5030099;28;20064;-79
2022/07/30 08:53:49;;;;;;;2.50;1.80;;;31.20;62.40;;;;;;5032893;28;20033;-79
2022/07/30 08:56:15;;;;;;;2.45;1.80;;;31.60;61.20;;;;;;5010820;28;21478;-80
2022/07/30 08:58:41;;;;;;;2.53;1.70;;;32.00;59.80;;;;;;5029308;28;20029;-80
2022/07/30 09:01:08;;;;;;;3.10;1.60;;;32.30;58.40;;;;;;5004308;28;20040;-80
2022/07/30 09:03:36;;;;;;;2.03;1.70;;;32.70;57.70;;;;;;5031447;28;20500;-81
2022/07/30 09:06:03;;;;;;;2.33;1.70;;;32.90;56.20;;;;;;5016839;28;20516;-80
2022/07/30 09:08:30;;;;;;;3.00;1.83;;;33.00;55.00;;;;;;5021042;28;20466;-80
2022/07/30 09:10:56;;;;;;;2.88;1.60;;;33.10;54.70;;;;;;4997822;28;20028;-80
2022/07/30 09:13:29;;;;;;;2.20;1.80;;;33.20;54.60;;;;;;5034287;28;20500;-81
2022/07/30 09:15:55;;;;;;;2.75;1.77;;;33.40;52.90;;;;;;4995085;28;20046;-80
2022/07/30 09:18:30;;;;;;;2.53;1.95;;;33.60;54.00;;;;;;5032244;28;20712;-80
2022/07/30 09:20:57;;;;;;;4.07;1.95;;;33.90;51.20;;;;;;5019681;28;20033;-80
2022/07/30 09:23:23;;;;;;;2.38;1.77;;;34.10;52.50;;;;;;5046262;28;20029;-79
2022/07/30 09:25:49;;;;;;;2.97;1.97;;;34.30;52.00;;;;;;5026508;28;20025;-80
2022/07/30 09:28:16;;;;;;;2.30;1.90;;;34.50;52.10;;;;;;4994546;28;20029;-80
2022/07/30 09:30:53;;;;;;;2.38;1.92;;;34.60;50.60;;;;;;5026480;28;20024;-80
2022/07/30 09:33:40;;;;;;;1.57;1.47;;;34.80;48.00;;;;;;5012986;28;20037;-81
2022/07/30 09:36:13;;;;;;;3.05;1.70;;;34.90;46.90;;;;;;5041436;28;20025;-81
2022/07/30 09:38:50;;;;;;;2.22;1.52;;;34.90;47.30;;;;;;5035675;28;20111;-80
2022/07/30 09:41:36;;;;;;;2.15;1.50;;;34.90;46.50;;;;;;5037528;28;20032;-80
2022/07/30 09:44:03;;;;;;;1.60;1.42;;;34.80;46.80;;;;;;5018205;28;20044;-79
2022/07/30 09:46:45;;;;;;;2.47;1.43;;;34.80;47.10;;;;;;4991138;28;20032;-79
2022/07/30 09:49:20;;;;;;;1.90;1.60;;;35.00;46.10;;;;;;5029433;28;20029;-80
2022/07/30 09:51:46;;;;;;;2.13;1.92;;;35.20;46.00;;;;;;5031199;28;23317;-79
2022/07/30 09:54:12;;;;;;;1.60;1.50;;;35.30;46.50;;;;;;5022980;28;20094;-80
2022/07/30 09:56:38;;;;;;;2.47;1.60;;;35.50;45.80;;;;;;5038026;28;20028;-79
2022/07/30 09:59:06;;;;;;;2.10;1.60;;;35.60;45.40;;;;;;5020097;28;20033;-79
2022/07/30 10:01:52;;;;;;;2.45;1.70;;;35.70;44.90;;;;;;5016859;28;20037;-80
2022/07/30 10:04:24;;;;;;;2.25;1.70;;;35.70;42.80;;;;;;5020983;28;20037;-80
2022/07/30 10:06:50;;;;;;;1.52;1.42;;;35.80;42.90;;;;;;5027691;28;20032;-80
2022/07/30 10:09:30;;;;;;;2.43;2.00;;;35.80;43.60;;;;;;5023954;28;20036;-80
2022/07/30 10:11:58;;;;;;;1.95;1.50;;;35.80;41.80;;;;;;5047908;28;20045;-81
2022/07/30 10:14:28;;;;;;;2.58;1.30;;;35.80;42.50;;;;;;5017686;28;20037;-80
2022/07/30 10:16:54;;;;;;;1.83;1.42;;;35.80;42.50;;;;;;5028231;28;20033;-82
2022/07/30 10:19:20;;;;;;;1.63;1.53;;;35.80;42.40;;;;;;5004882;28;20407;-80
2022/07/30 10:21:47;;;;;;;1.65;1.50;;;35.80;42.20;;;;;;5019971;28;20075;-82
2022/07/30 10:24:16;;;;;;;1.60;1.30;;;35.80;42.10;;;;;;5027708;28;20033;-80
2022/07/30 10:26:43;;;;;;;2.15;1.48;;;35.70;41.30;;;;;;5038883;28;20021;-80
2022/07/30 10:29:11;;;;;;;1.40;1.30;;;35.60;41.50;;;;;;5019665;28;20032;-79
2022/07/30 10:31:37;;;;;;;1.80;1.50;;;35.60;41.30;;;;;;5022909;28;20065;-78
2022/07/30 10:34:04;;;;;;;1.60;1.30;;;35.60;41.10;;;;;;5010503;28;20040;-78
2022/07/30 10:36:30;;;;;;;2.28;1.40;;;35.60;41.00;;;;;;5031551;28;20130;-79
2022/07/30 10:38:56;;;;;;;1.55;1.30;;;35.60;41.10;;;;;;5010472;28;20037;-79
2022/07/30 10:41:40;;;;;;;3.00;1.37;;;35.60;40.90;;;;;;5032742;28;20113;-79
2022/07/30 10:44:24;;;;;;;1.60;1.30;;;35.60;40.50;;;;;;5009357;28;20091;-79
2022/07/30 10:47:00;;;;;;;2.35;1.35;;;35.70;40.80;;;;;;5030973;28;20083;-80
2022/07/30 10:49:26;;;;;;;2.05;1.20;;;35.80;39.80;;;;;;5018637;28;20031;-80
2022/07/30 10:51:55;;;;;;;2.03;1.37;;;35.90;41.50;;;;;;5008177;28;20029;-79
2022/07/30 10:54:33;;;;;;;1.67;1.42;;;36.10;40.70;;;;;;5021764;28;20029;-80
2022/07/30 10:57:19;;;;;;;2.10;1.50;;;36.50;39.30;;;;;;5024665;28;20037;-80
2022/07/30 10:59:51;;;;;;;1.85;1.50;;;36.90;39.70;;;;;;5011340;28;20039;-81
2022/07/30 11:02:18;;;;;;;2.78;1.50;;;37.00;38.80;;;;;;5020900;28;20053;-81
2022/07/30 11:04:46;;;;;;;2.17;1.40;;;37.30;39.40;;;;;;5013349;28;20163;-79
2022/07/30 11:07:21;;;;;;;2.80;1.45;;;37.40;38.10;;;;;;5035588;28;20039;-80
2022/07/30 11:09:47;;;;;;;1.90;1.52;;;37.60;36.80;;;;;;5007638;28;20026;-80
2022/07/30 11:12:13;;;;;;;2.58;1.50;;;37.70;37.90;;;;;;5037085;28;20017;-79
2022/07/30 11:14:45;;;;;;;2.00;1.80;;;38.00;37.90;;;;;;5012657;28;20252;-79
2022/07/30 11:17:18;;;;;;;1.57;1.37;;;38.10;36.80;;;;;;5019064;28;20032;-80
2022/07/30 11:20:11;;;;;;;1.63;1.52;;;38.40;35.80;;;;;;5001165;28;20176;-79
2022/07/30 11:22:39;;;;;;;2.45;1.60;;;38.60;35.10;;;;;;5019693;28;20258;-78
2022/07/30 11:25:07;;;;;;;1.92;1.30;;;38.80;36.40;;;;;;5034955;28;20021;-80
2022/07/30 11:27:45;;;;;;;1.50;1.30;;;38.90;35.60;;;;;;5032853;28;20021;-79
2022/07/30 11:30:17;;;;;;;1.33;1.23;;;38.90;34.10;;;;;;5010361;28;20024;-80
2022/07/30 11:32:45;;;;;;;2.55;1.30;;;38.80;34.00;;;;;;5009014;28;20033;-79
2022/07/30 11:35:13;;;;;;;1.80;1.35;;;38.70;34.10;;;;;;5008012;28;21217;-80
2022/07/30 11:37:57;;;;;;;1.65;1.30;;;38.50;33.60;;;;;;5024634;28;20349;-80
2022/07/30 11:40:24;;;;;;;1.33;1.20;;;38.30;33.10;;;;;;5015216;28;20115;-80
2022/07/30 11:43:10;;;;;;;1.43;1.30;;;37.90;33.30;;;;;;5031394;28;20048;-79
2022/07/30 11:45:36;;;;;;;2.17;1.23;;;37.60;33.00;;;;;;5043096;28;20037;-80
2022/07/30 11:48:09;;;;;;;2.05;1.27;;;37.30;33.20;;;;;;5002669;28;20029;-79
2022/07/30 11:50:35;;;;;;;1.50;1.13;;;37.10;33.00;;;;;;5017092;28;20033;-79
2022/07/30 11:53:05;;;;;;;1.77;1.20;;;36.90;33.50;;;;;;5018830;28;20123;-79
2022/07/30 11:55:42;;;;;;;2.55;1.40;;;36.80;33.70;;;;;;5032920;28;20020;-80
2022/07/30 11:58:26;;;;;;;3.13;1.40;;;36.80;33.40;;;;;;5031322;28;20033;-79
2022/07/30 12:00:54;;;;;;;1.33;1.10;;;36.80;33.90;;;;;;5030577;28;20025;-79
2022/07/30 12:03:21;;;;;;;1.97;1.40;;;36.70;34.00;;;;;;5011015;28;20028;-79
2022/07/30 12:05:48;;;;;;;1.83;1.20;;;36.60;33.90;;;;;;5006983;28;20033;-79
2022/07/30 12:08:15;;;;;;;2.22;1.30;;;36.60;34.70;;;;;;5029147;28;20391;-80
2022/07/30 12:10:41;;;;;;;1.88;1.35;;;36.60;34.60;;;;;;5020704;28;20064;-80
2022/07/30 12:13:08;;;;;;;2.33;1.20;;;36.60;34.50;;;;;;5023334;28;20025;-80
2022/07/30 12:15:37;;;;;;;1.30;1.20;;;36.70;34.30;;;;;;5033035;28;20032;-80
2022/07/30 12:18:03;;;;;;;2.63;1.58;;;36.80;34.50;;;;;;5007324;28;20031;-79
2022/07/30 12:20:29;;;;;;;1.52;1.38;;;36.90;34.80;;;;;;5001714;28;20034;-80
2022/07/30 12:22:55;;;;;;;2.13;1.50;;;37.10;34.80;;;;;;5030074;28;20044;-81
2022/07/30 12:25:22;;;;;;;2.30;1.67;;;37.40;34.50;;;;;;5024915;28;20025;-80
2022/07/30 12:27:49;;;;;;;2.17;1.40;;;37.60;34.60;;;;;;5032494;28;20033;-80
2022/07/30 12:30:16;;;;;;;3.03;1.33;;;37.80;34.40;;;;;;5031502;28;20313;-80
2022/07/30 12:32:43;;;;;;;1.55;1.40;;;38.10;34.20;;;;;;5042885;28;20043;-80
2022/07/30 12:35:10;;;;;;;2.45;1.52;;;38.30;34.50;;;;;;5001672;28;20236;-80
2022/07/30 12:37:37;;;;;;;1.60;1.43;;;38.50;33.70;;;;;;5008535;28;20016;-80
2022/07/30 12:40:11;;;;;;;1.77;1.60;;;38.80;33.40;;;;;;5022297;28;20214;-80
2022/07/30 12:42:49;;;;;;;2.08;1.73;;;39.00;33.10;;;;;;5037981;28;20043;-80
2022/07/30 12:45:45;;;;;;;2.10;2.00;;;39.10;31.80;;;;;;5026766;28;20033;-80
2022/07/30 12:48:11;;;;;;;1.75;1.63;;;39.20;31.20;;;;;;5018177;28;20412;-80
2022/07/30 12:50:36;;;;;;;1.93;1.57;;;39.20;31.40;;;;;;4991095;28;22888;-81
2022/07/30 12:53:03;;;;;;;2.35;1.30;;;39.00;31.20;;;;;;5031303;28;21764;-79